Disclaimer

Please do not use the information listed here in-flight or in-navigation, as they are not provided to us by the airports but are provided by volunteers, so they might be outdated.

Search


Regions


Airport information page

Radio informations:
Melbourne Center - 119.4 MHz
Common traffic adv. frequency (CTAF) - 118.1 MHz

Airport informations:
Latitude: 36° 18' 02.00" S
Longitude: 148° 58' 26.00" E
Elevation: 3088 feet - 941 meters
Operating hours: N/A
Operating agency: Civil government, landing fees and diplomatic clearance may be required
Timezone: UTC+10(+11DT)
Fuel: Jet A1, without icing nhibitor.

100/130 MIL Spec, low lead, aviation gasoline (BLUE)

Runway information:
14/32 - 2041 x 59 feet< - >622 x 18 meters
18/36 - 6955 x 148 feet< - >2120 x 45 meters

Recent METARs:
YCOM 142000Z AUTO 18009KT 6000 // OVC004 11/11 Q1019
YCOM 142030Z AUTO 19010KT 9999 // BKN006 OVC013 12/11 Q1019
YCOM 142100Z AUTO 19011KT 6000 // OVC004 11/11 Q1020

Airport on the map: